Terminal Aerodrome Forecast
Issued by NWS

Home | Current Version | Previous Version | Text Only | Print | Product List | Glossary Off
Versions: 1 2 3 4 5 6 7 8 9 10 11 12 13 14 15 16

086
FTUS43 KICT 031721
TAFSLN
TAF
KSLN 031721Z 0318/0418 07004KT P6SM -RA OVC035
     FM032000 11005KT P6SM -RA OVC020
     FM032200 14004KT P6SM -RA OVC015
     FM040400 VRB03KT 2SM -RA OVC010
     FM041200 27005KT P6SM SCT020=

USA.gov is the U.S. government's official web portal to all federal, state and local government web resources and services.